createdAt,value
2018-03-02T00:02:05.110Z,94.50
2018-03-02T00:04:31.477Z,95.30
2018-03-02T00:06:57.814Z,95.30
2018-03-02T00:09:24.173Z,95.20
2018-03-02T00:11:51.232Z,94.20
2018-03-02T00:14:18.276Z,94.90
2018-03-02T00:16:45.330Z,94.80
2018-03-02T00:19:12.399Z,94.20
2018-03-02T00:21:38.734Z,94.20
2018-03-02T00:24:05.036Z,94.60
2018-03-02T00:26:32.084Z,94.90
2018-03-02T00:28:59.157Z,95.30
2018-03-02T00:31:25.477Z,95.30
2018-03-02T00:33:52.543Z,95.40
2018-03-02T00:36:18.836Z,95.40
2018-03-02T00:38:45.900Z,95.90
2018-03-02T00:41:13.017Z,95.90
2018-03-02T00:43:39.355Z,95.90
2018-03-02T00:46:06.397Z,95.80
2018-03-02T00:48:32.710Z,95.80
2018-03-02T00:50:59.049Z,96.00
2018-03-02T00:53:25.360Z,96.00
2018-03-02T00:55:51.669Z,96.50
2018-03-02T00:58:17.956Z,97.10
2018-03-02T01:00:45.029Z,96.10
2018-03-02T01:03:11.330Z,96.00
2018-03-02T01:05:37.682Z,96.10
2018-03-02T01:08:04.729Z,96.10
2018-03-02T01:10:31.458Z,96.10
2018-03-02T01:12:57.857Z,96.30
2018-03-02T01:15:24.192Z,96.90
2018-03-02T01:17:51.294Z,96.30
2018-03-02T01:20:17.589Z,96.30
2018-03-02T01:22:44.686Z,96.20
2018-03-02T01:25:10.992Z,96.10
2018-03-02T01:27:38.042Z,96.30
2018-03-02T01:30:05.152Z,96.00
2018-03-02T01:32:31.593Z,95.90
2018-03-02T01:34:58.669Z,96.00
2018-03-02T01:37:25.006Z,95.70
2018-03-02T01:39:51.391Z,95.40
2018-03-02T01:42:18.494Z,95.70
2018-03-02T01:44:44.832Z,95.60
2018-03-02T01:47:11.170Z,95.40
2018-03-02T01:49:37.481Z,94.80
2018-03-02T01:52:03.858Z,94.90
2018-03-02T01:54:30.139Z,94.60
2018-03-02T01:56:56.436Z,95.10
2018-03-02T01:59:22.803Z,94.50
2018-03-02T02:01:49.137Z,94.10
2018-03-02T02:04:16.658Z,93.80
2018-03-02T02:06:43.301Z,93.60
2018-03-02T02:09:09.922Z,94.60
2018-03-02T02:11:36.240Z,94.50
2018-03-02T02:14:02.579Z,94.40
2018-03-02T02:16:28.916Z,94.20
2018-03-02T02:18:55.246Z,94.60
2018-03-02T02:21:22.350Z,93.70
2018-03-02T02:23:51.560Z,93.70
2018-03-02T02:26:17.883Z,93.40
2018-03-02T02:28:44.185Z,93.50
2018-03-02T02:31:10.537Z,93.70
2018-03-02T02:33:36.842Z,93.40
2018-03-02T02:36:03.187Z,94.10
2018-03-02T02:38:29.535Z,93.90
2018-03-02T02:40:55.867Z,93.90
2018-03-02T02:43:22.191Z,93.80
2018-03-02T02:45:48.482Z,94.60
2018-03-02T02:48:14.878Z,94.80
2018-03-02T02:50:41.188Z,94.10
2018-03-02T02:53:07.517Z,93.90
2018-03-02T02:55:33.979Z,94.60
2018-03-02T02:58:00.309Z,94.20
2018-03-02T03:00:26.930Z,93.90
2018-03-02T03:02:54.060Z,93.20
2018-03-02T03:05:20.347Z,93.20
2018-03-02T03:07:46.681Z,93.70
2018-03-02T03:10:13.764Z,94.30
2018-03-02T03:12:40.081Z,94.20
2018-03-02T03:15:06.409Z,93.90
2018-03-02T03:17:32.731Z,93.70
2018-03-02T03:19:59.823Z,93.00
2018-03-02T03:22:26.146Z,92.90
2018-03-02T03:24:52.470Z,93.60
2018-03-02T03:27:18.799Z,93.30
2018-03-02T03:29:45.090Z,93.30
2018-03-02T03:32:12.182Z,93.60
2018-03-02T03:34:38.516Z,93.60
2018-03-02T03:37:04.850Z,93.30
2018-03-02T03:39:31.149Z,93.40
2018-03-02T03:41:57.452Z,93.00
2018-03-02T03:44:24.496Z,93.00
2018-03-02T03:46:50.841Z,92.90
2018-03-02T03:49:17.178Z,93.10
2018-03-02T03:51:43.496Z,93.00
2018-03-02T03:54:10.554Z,93.30
2018-03-02T03:56:37.581Z,93.90
2018-03-02T03:59:04.654Z,93.10
2018-03-02T04:01:31.725Z,93.00
2018-03-02T04:03:58.049Z,92.90
2018-03-02T04:06:24.598Z,93.40
2018-03-02T04:08:50.900Z,93.40
2018-03-02T04:11:17.230Z,93.10
2018-03-02T04:13:43.563Z,93.40
2018-03-02T04:16:09.887Z,93.10
2018-03-02T04:18:36.197Z,93.00
2018-03-02T04:21:02.520Z,93.10
2018-03-02T04:23:29.593Z,94.20
2018-03-02T04:25:55.897Z,94.20
2018-03-02T04:28:22.251Z,93.40
2018-03-02T04:30:48.570Z,93.20
2018-03-02T04:33:14.902Z,93.70
2018-03-02T04:35:41.330Z,93.30
2018-03-02T04:38:07.658Z,93.70
2018-03-02T04:40:34.007Z,92.70
2018-03-02T04:43:00.416Z,92.90
2018-03-02T04:45:26.753Z,93.70
2018-03-02T04:47:53.787Z,93.60
2018-03-02T04:50:20.129Z,93.60
2018-03-02T04:52:47.168Z,93.60
2018-03-02T04:55:13.506Z,93.60
2018-03-02T04:57:39.966Z,93.20
2018-03-02T05:00:06.366Z,92.80
2018-03-02T05:02:34.136Z,93.80
2018-03-02T05:05:01.191Z,93.50
2018-03-02T05:07:27.522Z,93.50
2018-03-02T05:09:53.931Z,93.10
2018-03-02T05:12:20.308Z,92.70
2018-03-02T05:14:46.671Z,92.70
2018-03-02T05:17:13.097Z,92.90
2018-03-02T05:19:39.527Z,93.20
2018-03-02T05:22:05.926Z,93.40
2018-03-02T05:24:32.253Z,93.10
2018-03-02T05:26:58.561Z,93.10
2018-03-02T05:29:24.889Z,93.20
2018-03-02T05:31:51.269Z,93.10
2018-03-02T05:34:17.742Z,93.00
2018-03-02T05:36:44.809Z,92.90
2018-03-02T05:39:11.983Z,93.10
2018-03-02T05:41:38.371Z,93.00
2018-03-02T05:44:04.777Z,93.00
2018-03-02T05:46:31.153Z,93.10
2018-03-02T05:48:57.468Z,93.90
2018-03-02T05:51:23.802Z,93.30
2018-03-02T05:53:50.145Z,93.30
2018-03-02T05:56:17.176Z,93.40
2018-03-02T05:58:44.221Z,92.70
2018-03-02T06:01:11.280Z,93.00
2018-03-02T06:03:38.316Z,93.10
2018-03-02T06:06:04.663Z,93.00
2018-03-02T06:08:30.999Z,92.90
2018-03-02T06:10:57.322Z,92.90
2018-03-02T06:13:23.640Z,93.10
2018-03-02T06:15:50.760Z,93.40
2018-03-02T06:18:17.074Z,93.40
2018-03-02T06:20:43.415Z,93.50
2018-03-02T06:23:09.698Z,92.20
2018-03-02T06:25:36.018Z,92.40
2018-03-02T06:28:02.382Z,92.40
2018-03-02T06:30:28.738Z,92.30
2018-03-02T06:32:55.120Z,92.50
2018-03-02T06:35:21.478Z,93.00
2018-03-02T06:37:47.851Z,93.40
2018-03-02T06:40:14.525Z,93.60
2018-03-02T06:42:40.831Z,93.40
2018-03-02T06:45:07.148Z,93.00
2018-03-02T06:47:33.483Z,92.30
2018-03-02T06:49:59.776Z,92.90
2018-03-02T06:52:26.084Z,92.70
2018-03-02T06:54:52.389Z,93.20
2018-03-02T06:57:19.471Z,93.30
2018-03-02T06:59:45.826Z,93.20
2018-03-02T07:02:12.176Z,93.50
2018-03-02T07:04:38.460Z,92.20
2018-03-02T07:07:04.773Z,92.30
2018-03-02T07:09:31.094Z,93.10
2018-03-02T07:11:58.180Z,92.50
2018-03-02T07:14:24.476Z,92.50
2018-03-02T07:16:50.820Z,92.50
2018-03-02T07:19:17.145Z,92.00
2018-03-02T07:21:43.466Z,91.10
2018-03-02T07:24:09.812Z,90.00
2018-03-02T07:26:36.146Z,90.40
2018-03-02T07:29:02.476Z,90.30
2018-03-02T07:31:28.829Z,90.30
2018-03-02T07:33:55.117Z,90.50
2018-03-02T07:36:21.521Z,89.80
2018-03-02T07:38:47.869Z,88.70
2018-03-02T07:41:14.984Z,89.80
2018-03-02T07:43:41.562Z,89.60
2018-03-02T07:46:08.605Z,88.50
2018-03-02T07:48:35.674Z,89.10
2018-03-02T07:51:01.989Z,88.40
2018-03-02T07:53:29.080Z,88.00
2018-03-02T07:55:56.306Z,86.40
2018-03-02T07:58:22.636Z,86.40
2018-03-02T08:00:48.950Z,86.90
2018-03-02T08:03:15.279Z,86.40
2018-03-02T08:05:41.625Z,85.80
2018-03-02T08:08:07.963Z,89.50
2018-03-02T08:10:34.287Z,87.10
2018-03-02T08:13:01.334Z,85.80
2018-03-02T08:15:27.663Z,85.80
2018-03-02T08:17:53.995Z,85.00
2018-03-02T08:20:21.054Z,83.20
2018-03-02T08:22:47.349Z,83.00
2018-03-02T08:25:14.439Z,83.10
2018-03-02T08:27:40.760Z,83.10
2018-03-02T08:30:07.053Z,81.30
2018-03-02T08:32:33.383Z,82.00
2018-03-02T08:34:59.683Z,81.00
2018-03-02T08:37:25.991Z,80.20
2018-03-02T08:39:52.330Z,79.90
2018-03-02T08:42:18.661Z,79.10
2018-03-02T08:44:44.970Z,78.00
2018-03-02T08:47:11.290Z,77.30
2018-03-02T08:49:37.599Z,80.00
2018-03-02T08:52:04.669Z,76.90
2018-03-02T08:54:30.979Z,76.70
2018-03-02T08:56:58.034Z,76.80
2018-03-02T08:59:24.401Z,76.80
2018-03-02T09:01:50.706Z,76.50
2018-03-02T09:04:17.013Z,76.90
2018-03-02T09:06:43.368Z,76.90
2018-03-02T09:09:09.673Z,77.00
2018-03-02T09:11:36.088Z,76.00
2018-03-02T09:14:02.464Z,75.60
2018-03-02T09:16:28.795Z,76.10
2018-03-02T09:18:55.122Z,74.70
2018-03-02T09:21:21.482Z,75.80
2018-03-02T09:23:47.832Z,75.70
2018-03-02T09:26:14.131Z,75.10
2018-03-02T09:28:40.547Z,75.10
2018-03-02T09:31:06.885Z,74.40
2018-03-02T09:33:33.233Z,75.20
2018-03-02T09:35:59.539Z,74.60
2018-03-02T09:38:25.962Z,74.50
2018-03-02T09:40:52.332Z,73.90
2018-03-02T09:43:18.652Z,73.90
2018-03-02T09:45:44.970Z,75.00
2018-03-02T09:48:12.016Z,74.20
2018-03-02T09:50:38.392Z,74.20
2018-03-02T09:53:04.842Z,74.60
2018-03-02T09:55:31.139Z,75.00
2018-03-02T09:57:57.431Z,75.50
2018-03-02T10:00:24.480Z,76.10
2018-03-02T10:02:50.779Z,76.00
2018-03-02T10:05:18.605Z,75.20
2018-03-02T10:07:44.931Z,75.10
2018-03-02T10:10:11.233Z,74.80
2018-03-02T10:12:37.540Z,74.20
2018-03-02T10:15:04.627Z,75.60
2018-03-02T10:17:30.936Z,75.60
2018-03-02T10:19:57.247Z,75.00
2018-03-02T10:22:23.556Z,74.80
2018-03-02T10:24:49.887Z,74.80
2018-03-02T10:27:16.194Z,75.50
2018-03-02T10:29:42.476Z,75.00
2018-03-02T10:32:09.542Z,74.80
2018-03-02T10:34:35.847Z,74.60
2018-03-02T10:37:02.209Z,75.40
2018-03-02T10:39:28.519Z,74.60
2018-03-02T10:41:54.868Z,74.10
2018-03-02T10:44:21.284Z,74.40
2018-03-02T10:46:48.372Z,74.20
2018-03-02T10:49:14.732Z,74.10
2018-03-02T10:51:41.030Z,74.30
2018-03-02T10:54:07.339Z,73.80
2018-03-02T10:56:33.662Z,73.20
2018-03-02T10:58:59.973Z,74.30
2018-03-02T11:01:27.054Z,73.50
2018-03-02T11:03:59.569Z,73.40
2018-03-02T11:06:25.873Z,74.10
2018-03-02T11:08:52.165Z,74.50
2018-03-02T11:11:18.533Z,73.90
2018-03-02T11:13:44.885Z,73.00
2018-03-02T11:16:11.153Z,72.10
2018-03-02T11:18:38.233Z,72.90
2018-03-02T11:21:04.548Z,72.80
2018-03-02T11:23:30.893Z,73.30
2018-03-02T11:25:57.182Z,72.50
2018-03-02T11:28:24.251Z,72.00
2018-03-02T11:30:50.610Z,71.90
2018-03-02T11:33:16.927Z,72.10
2018-03-02T11:35:43.284Z,71.50
2018-03-02T11:38:09.657Z,71.90
2018-03-02T11:40:36.711Z,71.40
2018-03-02T11:43:03.054Z,71.20
2018-03-02T11:45:29.385Z,71.60
2018-03-02T11:47:55.717Z,70.90
2018-03-02T11:50:22.016Z,71.00
2018-03-02T11:52:49.099Z,71.60
2018-03-02T11:55:15.440Z,71.40
2018-03-02T11:57:41.754Z,71.20
2018-03-02T12:00:08.070Z,71.30
2018-03-02T12:02:34.418Z,70.80
2018-03-02T12:05:00.712Z,69.20
2018-03-02T12:07:28.499Z,70.20
2018-03-02T12:09:54.859Z,70.20
2018-03-02T12:12:21.164Z,69.90
2018-03-02T12:14:47.502Z,68.70
2018-03-02T12:17:13.800Z,68.10
2018-03-02T12:19:40.863Z,68.20
2018-03-02T12:22:07.933Z,68.50
2018-03-02T12:24:34.681Z,68.30
2018-03-02T12:27:01.934Z,69.20
2018-03-02T12:29:28.245Z,69.10
2018-03-02T12:31:55.300Z,68.40
2018-03-02T12:34:21.641Z,68.40
2018-03-02T12:36:47.938Z,68.70
2018-03-02T12:39:15.024Z,67.80
2018-03-02T12:41:41.312Z,67.60
2018-03-02T12:44:07.661Z,67.40
2018-03-02T12:46:33.982Z,67.50
2018-03-02T12:49:01.067Z,67.00
2018-03-02T12:51:27.369Z,66.90
2018-03-02T12:53:53.664Z,65.10
2018-03-02T12:56:19.985Z,64.50
2018-03-02T12:58:47.078Z,63.30
2018-03-02T13:01:13.373Z,63.20
2018-03-02T13:03:39.691Z,61.30
2018-03-02T13:06:05.988Z,60.70
2018-03-02T13:08:32.284Z,60.10
2018-03-02T13:10:59.350Z,60.10
2018-03-02T13:13:25.635Z,60.00
2018-03-02T13:15:51.949Z,58.80
2018-03-02T13:18:30.776Z,58.10
2018-03-02T13:20:57.050Z,57.90
2018-03-02T13:23:23.655Z,58.20
2018-03-02T13:25:49.995Z,57.10
2018-03-02T13:28:28.587Z,56.00
2018-03-02T13:30:55.605Z,55.10
2018-03-02T13:33:34.252Z,55.00
2018-03-02T13:36:00.564Z,54.80
2018-03-02T13:38:26.869Z,55.20
2018-03-02T13:41:05.647Z,54.60
2018-03-02T13:43:31.934Z,53.70
2018-03-02T13:45:58.269Z,52.50
2018-03-02T13:48:37.670Z,53.30
2018-03-02T13:51:03.934Z,53.30
2018-03-02T13:53:30.244Z,51.70
2018-03-02T13:55:56.590Z,50.60
2018-03-02T13:58:22.942Z,51.20
2018-03-02T14:00:49.339Z,51.10
2018-03-02T14:03:28.094Z,49.30
2018-03-02T14:05:55.107Z,49.40
2018-03-02T14:08:21.423Z,49.40
2018-03-02T14:10:48.488Z,48.90
2018-03-02T14:13:14.794Z,48.80
2018-03-02T14:15:41.837Z,49.30
2018-03-02T14:18:08.316Z,49.20
2018-03-02T14:20:36.391Z,48.20
2018-03-02T14:23:05.077Z,48.40
2018-03-02T14:25:35.186Z,48.60
2018-03-02T14:28:01.569Z,48.50
2018-03-02T14:30:27.908Z,46.80
2018-03-02T14:32:54.197Z,46.50
2018-03-02T14:35:20.497Z,47.00
2018-03-02T14:37:46.825Z,45.70
2018-03-02T14:40:13.140Z,44.80
2018-03-02T14:42:39.447Z,44.00
2018-03-02T14:45:05.725Z,44.90
2018-03-02T14:47:32.056Z,44.30
2018-03-02T14:49:58.340Z,45.50
2018-03-02T14:52:25.421Z,46.00
2018-03-02T14:54:51.698Z,46.00
2018-03-02T14:57:18.025Z,46.40
2018-03-02T14:59:44.454Z,45.40
2018-03-02T15:02:10.887Z,44.60
2018-03-02T15:04:37.189Z,44.00
2018-03-02T15:07:03.476Z,44.50
2018-03-02T15:09:30.644Z,45.30
2018-03-02T15:11:56.941Z,45.20
2018-03-02T15:14:23.236Z,44.20
2018-03-02T15:16:49.535Z,45.20
2018-03-02T15:19:16.751Z,46.00
2018-03-02T15:21:43.800Z,44.50
2018-03-02T15:24:10.099Z,44.40
2018-03-02T15:26:36.413Z,45.40
2018-03-02T15:29:02.876Z,45.90
2018-03-02T15:31:29.175Z,46.20
2018-03-02T15:33:55.506Z,45.70
2018-03-02T15:36:21.836Z,44.50
2018-03-02T15:38:48.149Z,45.10
2018-03-02T15:41:14.475Z,45.60
2018-03-02T15:43:40.789Z,46.30
2018-03-02T15:46:07.076Z,46.40
2018-03-02T15:48:33.421Z,44.80
2018-03-02T15:50:59.729Z,45.20
2018-03-02T15:53:26.037Z,46.20
2018-03-02T15:55:52.391Z,45.50
2018-03-02T15:58:18.670Z,46.30
2018-03-02T16:00:45.017Z,45.40
2018-03-02T16:03:12.092Z,46.40
2018-03-02T16:05:38.380Z,46.30
2018-03-02T16:08:05.449Z,47.20
2018-03-02T16:10:31.775Z,47.20
2018-03-02T16:12:58.835Z,46.50
2018-03-02T16:15:25.137Z,46.50
2018-03-02T16:17:52.202Z,48.20
2018-03-02T16:20:18.547Z,48.20
2018-03-02T16:22:44.859Z,48.80
2018-03-02T16:25:11.918Z,49.60
2018-03-02T16:27:38.264Z,49.60
2018-03-02T16:30:04.644Z,49.60
2018-03-02T16:32:31.721Z,49.20
2018-03-02T16:34:58.088Z,49.20
2018-03-02T16:37:24.501Z,50.30
2018-03-02T16:39:50.837Z,51.70
2018-03-02T16:42:17.120Z,52.60
2018-03-02T16:44:44.345Z,53.80
2018-03-02T16:47:10.753Z,53.70
2018-03-02T16:49:38.664Z,54.30
2018-03-02T16:52:05.097Z,54.20
2018-03-02T16:54:31.692Z,54.70
2018-03-02T16:56:58.021Z,55.40
2018-03-02T16:59:24.325Z,55.70
2018-03-02T17:01:50.655Z,56.00
2018-03-02T17:04:16.985Z,56.10
2018-03-02T17:06:43.320Z,56.70
2018-03-02T17:09:09.628Z,56.80
2018-03-02T17:11:36.318Z,57.30
2018-03-02T17:14:02.646Z,58.10
2018-03-02T17:16:28.965Z,58.70
2018-03-02T17:18:55.346Z,58.30
2018-03-02T17:21:22.426Z,58.70
2018-03-02T17:23:48.729Z,58.70
2018-03-02T17:26:15.776Z,59.20
2018-03-02T17:28:42.112Z,59.10
2018-03-02T17:31:08.435Z,59.50
2018-03-02T17:33:34.752Z,59.00
2018-03-02T17:36:01.099Z,59.00
2018-03-02T17:38:28.320Z,59.50
2018-03-02T17:40:54.626Z,59.50
2018-03-02T17:43:20.937Z,60.00
2018-03-02T17:45:47.255Z,59.90
2018-03-02T17:48:13.560Z,60.40
2018-03-02T17:50:39.902Z,60.20
2018-03-02T17:53:06.998Z,61.00
2018-03-02T17:55:33.298Z,60.90
2018-03-02T17:57:59.607Z,61.60
2018-03-02T18:00:26.679Z,61.00
2018-03-02T18:02:53.016Z,60.90
2018-03-02T18:05:19.305Z,61.40
2018-03-02T18:07:45.624Z,62.10
2018-03-02T18:10:11.933Z,62.30
2018-03-02T18:12:38.251Z,61.90
2018-03-02T18:15:04.551Z,61.90
2018-03-02T18:17:30.866Z,61.20
2018-03-02T18:19:57.908Z,63.00
2018-03-02T18:22:27.588Z,62.90
2018-03-02T18:24:53.939Z,62.70
2018-03-02T18:27:20.238Z,62.20
2018-03-02T18:29:46.558Z,62.90
2018-03-02T18:32:12.917Z,63.00
2018-03-02T18:34:39.241Z,62.20
2018-03-02T18:37:07.056Z,63.60
2018-03-02T18:39:33.364Z,63.60
2018-03-02T18:41:59.699Z,63.80
2018-03-02T18:44:26.748Z,63.90
2018-03-02T18:46:53.807Z,64.50
2018-03-02T18:49:20.118Z,64.40
2018-03-02T18:51:47.881Z,63.90
2018-03-02T18:54:14.968Z,64.50
2018-03-02T18:56:41.253Z,64.30
2018-03-02T18:59:08.343Z,65.10
2018-03-02T19:01:34.633Z,65.10
2018-03-02T19:04:00.955Z,65.30
2018-03-02T19:06:28.002Z,65.30
2018-03-02T19:08:54.329Z,65.30
2018-03-02T19:11:20.633Z,65.80
2018-03-02T19:13:46.958Z,65.40
2018-03-02T19:16:13.279Z,66.30
2018-03-02T19:18:39.583Z,66.70
2018-03-02T19:21:05.933Z,66.90
2018-03-02T19:23:32.912Z,67.00
2018-03-02T19:25:59.553Z,67.60
2018-03-02T19:28:26.084Z,68.20
2018-03-02T19:30:54.158Z,67.70
2018-03-02T19:33:20.509Z,67.60
2018-03-02T19:35:47.023Z,68.10
2018-03-02T19:38:13.336Z,68.60
2018-03-02T19:40:39.811Z,68.70
2018-03-02T19:43:06.888Z,68.70
2018-03-02T19:45:33.497Z,68.60
2018-03-02T19:47:59.898Z,69.60
2018-03-02T19:50:26.647Z,69.90
2018-03-02T19:52:54.731Z,70.70
2018-03-02T19:55:22.784Z,70.70
2018-03-02T19:57:49.424Z,70.70
2018-03-02T20:00:16.686Z,71.90
2018-03-02T20:02:44.622Z,72.20
2018-03-02T20:05:11.966Z,72.90
2018-03-02T20:07:38.419Z,72.80
2018-03-02T20:10:05.585Z,73.40
2018-03-02T20:12:32.923Z,75.90
2018-03-02T20:15:00.137Z,76.60
2018-03-02T20:17:26.666Z,76.50
2018-03-02T20:19:54.076Z,76.90
2018-03-02T20:22:20.396Z,76.80
2018-03-02T20:24:46.742Z,77.00
2018-03-02T20:27:13.833Z,78.80
2018-03-02T20:29:41.862Z,79.30
2018-03-02T20:32:08.191Z,79.20
2018-03-02T20:34:36.054Z,81.50
2018-03-02T20:37:02.598Z,81.50
2018-03-02T20:39:29.652Z,83.40
2018-03-02T20:41:56.088Z,83.00
2018-03-02T20:44:22.681Z,82.10
2018-03-02T20:46:49.445Z,83.50
2018-03-02T20:49:16.132Z,83.60
2018-03-02T20:51:42.805Z,83.70
2018-03-02T20:54:09.180Z,85.20
2018-03-02T20:56:35.926Z,86.50
2018-03-02T20:59:02.331Z,85.80
2018-03-02T21:01:30.323Z,86.60
2018-03-02T21:03:56.641Z,86.60
2018-03-02T21:06:24.592Z,86.90
2018-03-02T21:08:50.907Z,86.90
2018-03-02T21:11:17.687Z,87.90
2018-03-02T21:13:44.834Z,89.60
2018-03-02T21:16:12.642Z,89.40
2018-03-02T21:18:38.969Z,89.40
2018-03-02T21:21:05.302Z,90.30
2018-03-02T21:23:31.621Z,90.80
2018-03-02T21:25:57.961Z,92.00
2018-03-02T21:28:25.972Z,91.80
2018-03-02T21:30:52.458Z,91.70
2018-03-02T21:33:19.688Z,93.40
2018-03-02T21:35:46.728Z,93.80
2018-03-02T21:38:13.814Z,94.30
2018-03-02T21:40:40.111Z,94.30
2018-03-02T21:43:06.437Z,94.50
2018-03-02T21:45:33.593Z,94.40
2018-03-02T21:48:00.713Z,94.40
2018-03-02T21:50:27.095Z,95.10
2018-03-02T21:52:53.428Z,95.30
2018-03-02T21:55:19.761Z,94.60
2018-03-02T21:57:46.088Z,93.70
2018-03-02T22:00:12.377Z,94.20
2018-03-02T22:02:38.740Z,94.20
2018-03-02T22:05:05.053Z,94.10
2018-03-02T22:07:31.401Z,94.10
2018-03-02T22:09:58.431Z,94.20
2018-03-02T22:12:25.527Z,94.60
2018-03-02T22:14:51.824Z,94.70
2018-03-02T22:17:18.144Z,95.10
2018-03-02T22:19:45.266Z,95.40
2018-03-02T22:22:11.584Z,95.30
2018-03-02T22:24:37.942Z,95.30
2018-03-02T22:27:04.247Z,95.00
2018-03-02T22:29:32.062Z,96.10
2018-03-02T22:31:58.379Z,96.10
2018-03-02T22:34:25.478Z,96.50
2018-03-02T22:36:52.536Z,96.40
2018-03-02T22:39:18.828Z,96.40
2018-03-02T22:41:45.123Z,96.60
2018-03-02T22:44:12.156Z,97.20
2018-03-02T22:46:39.214Z,98.10
2018-03-02T22:49:06.260Z,98.00
2018-03-02T22:51:34.045Z,98.00
2018-03-02T22:54:01.080Z,97.80
2018-03-02T22:56:27.407Z,97.80
2018-03-02T22:58:54.454Z,98.60
2018-03-02T23:01:21.477Z,98.50
2018-03-02T23:03:47.785Z,98.40
2018-03-02T23:06:14.084Z,99.40
2018-03-02T23:08:40.475Z,99.50
2018-03-02T23:11:06.748Z,98.70
2018-03-02T23:13:33.057Z,98.70
2018-03-02T23:16:00.120Z,98.80
2018-03-02T23:18:26.406Z,98.70
2018-03-02T23:20:52.705Z,98.60
2018-03-02T23:23:19.000Z,98.90
2018-03-02T23:25:45.301Z,99.10
2018-03-02T23:28:11.621Z,99.10
2018-03-02T23:30:38.697Z,99.70
2018-03-02T23:33:05.862Z,99.80
2018-03-02T23:35:32.170Z,99.80
2018-03-02T23:37:59.206Z,99.20
2018-03-02T23:40:27.007Z,99.50
2018-03-02T23:42:53.307Z,99.50
2018-03-02T23:45:20.358Z,99.90
2018-03-02T23:47:47.392Z,99.80
2018-03-02T23:50:14.454Z,99.90
2018-03-02T23:52:41.493Z,99.90
2018-03-02T23:55:09.290Z,99.90
2018-03-02T23:57:35.576Z,99.70
